createdAt,value
2023-05-17T00:02:20.972Z,13.90
2023-05-17T00:04:49.175Z,13.71
2023-05-17T00:07:16.956Z,13.66
2023-05-17T00:09:44.934Z,13.58
2023-05-17T00:12:12.601Z,13.58
2023-05-17T00:14:40.714Z,13.61
2023-05-17T00:17:08.433Z,13.64
2023-05-17T00:19:36.416Z,13.67
2023-05-17T00:22:04.263Z,13.62
2023-05-17T00:24:32.341Z,13.67
2023-05-17T00:27:00.040Z,13.69
2023-05-17T00:29:27.978Z,13.70
2023-05-17T00:31:55.733Z,13.53
2023-05-17T00:34:24.079Z,13.44
2023-05-17T00:36:51.763Z,13.42
2023-05-17T00:39:19.747Z,13.44
2023-05-17T00:41:47.478Z,13.45
2023-05-17T00:44:15.519Z,13.43
2023-05-17T00:46:43.466Z,13.45
2023-05-17T00:49:11.526Z,13.46
2023-05-17T00:51:39.841Z,13.47
2023-05-17T00:54:08.015Z,13.53
2023-05-17T00:56:35.992Z,13.43
2023-05-17T00:59:06.688Z,13.40
2023-05-17T01:01:36.865Z,13.43
2023-05-17T01:04:05.437Z,13.35
2023-05-17T01:06:35.350Z,13.49
2023-05-17T01:09:07.472Z,13.54
2023-05-17T01:12:11.932Z,13.67
2023-05-17T01:14:54.923Z,13.65
2023-05-17T01:17:48.107Z,13.46
2023-05-17T01:20:29.673Z,13.34
2023-05-17T01:23:41.808Z,13.22
2023-05-17T01:26:19.224Z,13.28
2023-05-17T01:28:52.555Z,13.18
2023-05-17T01:31:21.849Z,13.27
2023-05-17T01:33:50.202Z,13.34
2023-05-17T01:36:18.236Z,13.30
2023-05-17T01:38:45.943Z,13.18
2023-05-17T01:41:38.304Z,13.09
2023-05-17T01:44:26.995Z,13.02
2023-05-17T01:47:21.131Z,13.08
2023-05-17T01:49:54.277Z,13.38
2023-05-17T01:52:37.792Z,13.34
2023-05-17T01:55:46.249Z,13.32
2023-05-17T01:58:14.876Z,13.13
2023-05-17T02:00:46.192Z,13.14
2023-05-17T02:03:21.365Z,13.17
2023-05-17T02:05:53.517Z,13.15
2023-05-17T02:08:21.476Z,13.08
2023-05-17T02:10:49.221Z,12.98
2023-05-17T02:13:17.145Z,12.99
2023-05-17T02:15:45.067Z,12.96
2023-05-17T02:18:13.216Z,13.17
2023-05-17T02:20:41.411Z,13.10
2023-05-17T02:23:09.794Z,13.19
2023-05-17T02:25:37.465Z,13.16
2023-05-17T02:28:06.922Z,13.33
2023-05-17T02:30:36.856Z,13.21
2023-05-17T02:33:04.905Z,13.19
2023-05-17T02:35:32.798Z,13.18
2023-05-17T02:38:01.160Z,13.03
2023-05-17T02:40:28.855Z,12.99
2023-05-17T02:42:56.871Z,13.13
2023-05-17T02:45:24.585Z,13.18
2023-05-17T02:47:52.588Z,13.12
2023-05-17T02:50:20.648Z,13.00
2023-05-17T02:52:48.675Z,12.95
2023-05-17T02:55:16.779Z,13.02
2023-05-17T02:57:45.248Z,12.95
2023-05-17T03:00:14.057Z,13.10
2023-05-17T03:02:42.266Z,13.09
2023-05-17T03:05:10.718Z,13.10
2023-05-17T03:07:43.348Z,13.08
2023-05-17T03:10:11.354Z,13.19
2023-05-17T03:12:44.001Z,13.13
2023-05-17T03:15:12.236Z,13.07
2023-05-17T03:17:40.300Z,12.97
2023-05-17T03:20:09.805Z,12.91
2023-05-17T03:22:37.853Z,12.88
2023-05-17T03:25:06.845Z,12.83
2023-05-17T03:27:35.250Z,12.77
2023-05-17T03:30:03.090Z,12.78
2023-05-17T03:32:33.030Z,13.03
2023-05-17T03:35:00.853Z,13.25
2023-05-17T03:37:29.667Z,13.30
2023-05-17T03:39:57.480Z,13.24
2023-05-17T03:42:25.709Z,13.20
2023-05-17T03:44:54.077Z,13.25
2023-05-17T03:47:24.832Z,13.28
2023-05-17T03:49:52.537Z,13.25
2023-05-17T03:52:21.220Z,13.07
2023-05-17T03:54:49.574Z,13.15
2023-05-17T03:57:18.346Z,12.98
2023-05-17T03:59:46.800Z,13.09
2023-05-17T04:02:16.851Z,13.12
2023-05-17T04:04:52.985Z,13.26
2023-05-17T04:07:22.065Z,13.19
2023-05-17T04:09:49.829Z,13.24
2023-05-17T04:12:17.898Z,13.18
2023-05-17T04:14:45.585Z,13.23
2023-05-17T04:17:16.795Z,13.23
2023-05-17T04:19:45.418Z,13.38
2023-05-17T04:22:13.703Z,13.34
2023-05-17T04:24:41.453Z,13.23
2023-05-17T04:27:09.902Z,13.28
2023-05-17T04:29:37.762Z,13.28
2023-05-17T04:32:06.190Z,13.13
2023-05-17T04:34:34.105Z,13.24
2023-05-17T04:37:04.267Z,13.17
2023-05-17T04:39:34.143Z,13.13
2023-05-17T04:42:02.364Z,13.14
2023-05-17T04:44:30.717Z,13.23
2023-05-17T04:46:58.992Z,13.27
2023-05-17T04:49:27.226Z,13.23
2023-05-17T04:51:59.229Z,13.23
2023-05-17T04:54:27.524Z,13.24
2023-05-17T04:56:55.989Z,13.23
2023-05-17T04:59:43.769Z,13.33
2023-05-17T05:02:12.436Z,13.27
2023-05-17T05:04:40.529Z,13.32
2023-05-17T05:07:09.998Z,13.35
2023-05-17T05:09:37.905Z,13.30
2023-05-17T05:12:07.246Z,13.24
2023-05-17T05:14:37.002Z,13.25
2023-05-17T05:17:05.778Z,13.32
2023-05-17T05:19:34.055Z,13.31
2023-05-17T05:22:02.759Z,13.38
2023-05-17T05:24:32.948Z,13.40
2023-05-17T05:27:01.360Z,13.48
2023-05-17T05:29:29.449Z,13.45
2023-05-17T05:31:57.604Z,13.43
2023-05-17T05:34:25.661Z,13.27
2023-05-17T05:36:53.834Z,13.43
2023-05-17T05:39:21.910Z,13.34
2023-05-17T05:41:49.880Z,13.38
2023-05-17T05:44:17.746Z,13.46
2023-05-17T05:46:46.053Z,13.51
2023-05-17T05:49:14.530Z,13.51
2023-05-17T05:51:42.555Z,13.47
2023-05-17T05:54:10.875Z,13.57
2023-05-17T05:56:39.846Z,13.53
2023-05-17T05:59:09.077Z,13.59
2023-05-17T06:01:38.136Z,13.38
2023-05-17T06:04:06.009Z,13.27
2023-05-17T06:06:34.115Z,13.09
2023-05-17T06:09:02.253Z,13.33
2023-05-17T06:11:30.357Z,13.25
2023-05-17T06:13:58.119Z,13.39
2023-05-17T06:16:26.115Z,13.52
2023-05-17T06:18:53.964Z,13.39
2023-05-17T06:21:21.985Z,13.54
2023-05-17T06:23:49.806Z,13.39
2023-05-17T06:26:17.779Z,13.28
2023-05-17T06:28:46.135Z,13.46
2023-05-17T06:31:14.194Z,13.49
2023-05-17T06:33:42.220Z,13.51
2023-05-17T06:36:10.516Z,13.49
2023-05-17T06:38:38.243Z,13.59
2023-05-17T06:41:06.568Z,13.67
2023-05-17T06:43:35.736Z,13.57
2023-05-17T06:46:05.729Z,13.50
2023-05-17T06:48:33.598Z,13.47
2023-05-17T06:51:02.569Z,13.55
2023-05-17T06:53:30.332Z,13.51
2023-05-17T06:55:58.319Z,13.51
2023-05-17T06:58:26.700Z,13.60
2023-05-17T07:00:54.685Z,13.46
2023-05-17T07:03:22.550Z,13.47
2023-05-17T07:05:50.629Z,13.34
2023-05-17T07:08:18.406Z,13.20
2023-05-17T07:10:46.447Z,13.31
2023-05-17T07:13:14.323Z,13.37
2023-05-17T07:15:42.493Z,13.37
2023-05-17T07:18:10.792Z,13.43
2023-05-17T07:20:38.945Z,13.33
2023-05-17T07:23:06.840Z,13.58
2023-05-17T07:25:41.131Z,13.72
2023-05-17T07:28:08.993Z,13.73
2023-05-17T07:30:37.430Z,13.73
2023-05-17T07:33:05.351Z,13.78
2023-05-17T07:35:33.436Z,13.96
2023-05-17T07:38:01.291Z,14.06
2023-05-17T07:40:29.583Z,14.18
2023-05-17T07:42:57.309Z,14.43
2023-05-17T07:45:25.870Z,14.62
2023-05-17T07:47:53.718Z,14.93
2023-05-17T07:50:22.225Z,14.92
2023-05-17T07:52:50.017Z,15.20
2023-05-17T07:55:18.254Z,15.25
2023-05-17T07:57:47.515Z,15.51
2023-05-17T08:00:19.307Z,15.64
2023-05-17T08:02:47.250Z,15.54
2023-05-17T08:05:15.880Z,15.28
2023-05-17T08:07:43.673Z,14.85
2023-05-17T08:10:11.864Z,14.98
2023-05-17T08:12:39.743Z,15.00
2023-05-17T08:15:08.437Z,14.84
2023-05-17T08:17:36.556Z,14.63
2023-05-17T08:20:08.042Z,14.47
2023-05-17T08:22:39.793Z,14.44
2023-05-17T08:25:08.172Z,14.68
2023-05-17T08:27:36.151Z,14.70
2023-05-17T08:30:08.987Z,14.56
2023-05-17T08:32:39.255Z,14.60
2023-05-17T08:35:07.661Z,14.80
2023-05-17T08:37:35.322Z,14.69
2023-05-17T08:40:05.111Z,14.56
2023-05-17T08:42:33.750Z,14.53
2023-05-17T08:45:02.118Z,14.35
2023-05-17T08:47:32.282Z,14.20
2023-05-17T08:50:05.956Z,14.07
2023-05-17T08:52:36.055Z,13.95
2023-05-17T08:55:06.124Z,13.91
2023-05-17T08:57:38.732Z,13.83
2023-05-17T09:00:12.582Z,13.76
2023-05-17T09:02:42.173Z,13.79
2023-05-17T09:05:11.310Z,13.98
2023-05-17T09:07:39.199Z,13.88
2023-05-17T09:10:07.835Z,13.82
2023-05-17T09:12:35.561Z,13.74
2023-05-17T09:15:20.000Z,13.88
2023-05-17T09:17:55.287Z,13.89
2023-05-17T09:20:34.534Z,13.90
2023-05-17T09:23:13.329Z,14.02
2023-05-17T09:25:49.054Z,13.98
2023-05-17T09:28:22.463Z,13.86
2023-05-17T09:30:50.610Z,13.90
2023-05-17T09:33:22.858Z,14.22
2023-05-17T09:35:51.215Z,14.44
2023-05-17T09:38:19.072Z,14.35
2023-05-17T09:40:48.875Z,14.29
2023-05-17T09:43:23.040Z,14.20
2023-05-17T09:45:58.854Z,14.10
2023-05-17T09:48:30.329Z,13.85
2023-05-17T09:50:58.427Z,13.69
2023-05-17T09:53:30.003Z,13.78
2023-05-17T09:56:03.136Z,13.70
2023-05-17T09:58:33.897Z,13.75
2023-05-17T10:01:04.310Z,13.80
2023-05-17T10:03:34.438Z,14.01
2023-05-17T10:06:05.782Z,14.03
2023-05-17T10:08:34.837Z,13.99
2023-05-17T10:11:12.207Z,14.05
2023-05-17T10:14:06.843Z,14.06
2023-05-17T10:16:35.320Z,13.92
2023-05-17T10:19:03.896Z,13.92
2023-05-17T10:21:32.722Z,13.89
2023-05-17T10:24:03.075Z,13.84
2023-05-17T10:26:31.587Z,13.86
2023-05-17T10:29:02.166Z,13.86
2023-05-17T10:31:33.387Z,13.71
2023-05-17T10:34:06.551Z,13.99
2023-05-17T10:36:34.993Z,13.95
2023-05-17T10:39:03.080Z,13.94
2023-05-17T10:41:35.187Z,14.26
2023-05-17T10:44:04.626Z,13.91
2023-05-17T10:46:32.838Z,14.02
2023-05-17T10:49:01.893Z,13.94
2023-05-17T10:51:35.616Z,13.80
2023-05-17T10:54:19.129Z,13.91
2023-05-17T10:56:52.502Z,13.59
2023-05-17T10:59:28.217Z,13.68
2023-05-17T11:02:03.634Z,13.75
2023-05-17T11:04:39.351Z,13.61
2023-05-17T11:07:17.244Z,13.69
2023-05-17T11:09:53.501Z,13.62
2023-05-17T11:12:42.986Z,13.72
2023-05-17T11:15:12.230Z,13.82
2023-05-17T11:17:50.620Z,13.80
2023-05-17T11:20:27.950Z,13.76
2023-05-17T11:23:07.738Z,13.50
2023-05-17T11:25:36.921Z,13.45
2023-05-17T11:28:27.017Z,13.59
2023-05-17T11:31:01.516Z,13.52
2023-05-17T11:33:43.697Z,13.54
2023-05-17T11:36:23.166Z,13.47
2023-05-17T11:39:10.551Z,13.30
2023-05-17T11:41:43.128Z,13.38
2023-05-17T11:44:11.762Z,13.32
2023-05-17T11:46:41.264Z,13.35
2023-05-17T11:49:13.552Z,13.16
2023-05-17T11:51:43.325Z,13.24
2023-05-17T11:54:14.301Z,13.48
2023-05-17T11:56:43.189Z,13.47
2023-05-17T11:59:11.923Z,13.58
2023-05-17T12:01:44.432Z,13.75
2023-05-17T12:04:14.157Z,13.86
2023-05-17T12:06:42.623Z,13.88
2023-05-17T12:09:11.064Z,13.86
2023-05-17T12:11:41.183Z,13.66
2023-05-17T12:14:09.459Z,13.77
2023-05-17T12:16:40.903Z,13.75
2023-05-17T12:19:19.702Z,13.74
2023-05-17T12:21:48.446Z,13.68
2023-05-17T12:24:17.029Z,13.79
2023-05-17T12:26:46.544Z,13.84
2023-05-17T12:29:19.338Z,13.79
2023-05-17T12:31:50.854Z,13.86
2023-05-17T12:34:19.393Z,13.70
2023-05-17T12:36:47.549Z,13.67
2023-05-17T12:39:18.122Z,13.70
2023-05-17T12:41:48.237Z,13.71
2023-05-17T12:44:16.916Z,13.61
2023-05-17T12:46:45.927Z,13.79
2023-05-17T12:49:13.989Z,13.83
2023-05-17T12:51:51.051Z,13.94
2023-05-17T12:54:24.706Z,13.74
2023-05-17T12:56:52.656Z,13.75
2023-05-17T12:59:21.300Z,13.68
2023-05-17T13:01:57.280Z,13.89
2023-05-17T13:04:33.420Z,13.72
2023-05-17T13:07:06.214Z,13.78
2023-05-17T13:09:45.073Z,13.80
2023-05-17T13:12:18.170Z,13.74
2023-05-17T13:14:51.823Z,13.76
2023-05-17T13:17:25.109Z,13.70
2023-05-17T13:19:54.361Z,13.55
2023-05-17T13:22:22.868Z,13.64
2023-05-17T13:24:51.345Z,13.63
2023-05-17T13:27:19.469Z,13.67
2023-05-17T13:29:47.585Z,13.88
2023-05-17T13:32:15.784Z,13.87
2023-05-17T13:34:43.833Z,14.04
2023-05-17T13:37:12.646Z,14.18
2023-05-17T13:39:42.218Z,14.37
2023-05-17T13:42:11.340Z,14.17
2023-05-17T13:44:39.509Z,14.14
2023-05-17T13:47:07.674Z,14.16
2023-05-17T13:49:36.259Z,14.26
2023-05-17T13:52:04.346Z,14.40
2023-05-17T13:54:32.452Z,14.32
2023-05-17T13:57:00.622Z,14.27
2023-05-17T13:59:28.641Z,14.30
2023-05-17T14:01:57.785Z,14.25
2023-05-17T14:04:26.171Z,14.33
2023-05-17T14:06:55.151Z,14.53
2023-05-17T14:09:23.364Z,14.85
2023-05-17T14:11:51.503Z,14.74
2023-05-17T14:14:19.461Z,14.88
2023-05-17T14:16:47.134Z,15.00
2023-05-17T14:19:15.277Z,15.18
2023-05-17T14:21:43.095Z,15.21
2023-05-17T14:24:11.036Z,15.34
2023-05-17T14:26:39.052Z,15.24
2023-05-17T14:29:07.698Z,15.32
2023-05-17T14:31:35.589Z,15.22
2023-05-17T14:34:04.028Z,15.04
2023-05-17T14:36:34.104Z,14.84
2023-05-17T14:39:02.602Z,14.67
2023-05-17T14:41:30.328Z,14.56
2023-05-17T14:43:58.346Z,14.45
2023-05-17T14:46:26.043Z,14.48
2023-05-17T14:48:56.347Z,14.36
2023-05-17T14:51:25.121Z,14.23
2023-05-17T14:53:54.322Z,14.09
2023-05-17T14:56:22.634Z,14.20
2023-05-17T14:58:51.211Z,14.18
2023-05-17T15:01:19.319Z,14.23
2023-05-17T15:03:47.444Z,14.21
2023-05-17T15:06:15.436Z,14.10
2023-05-17T15:08:43.444Z,13.94
2023-05-17T15:11:11.173Z,13.79
2023-05-17T15:13:39.158Z,13.76
2023-05-17T15:16:08.234Z,13.77
2023-05-17T15:18:36.699Z,13.70
2023-05-17T15:21:04.600Z,13.58
2023-05-17T15:23:32.679Z,13.65
2023-05-17T15:26:00.604Z,13.71
2023-05-17T15:28:28.741Z,13.74
2023-05-17T15:31:06.298Z,13.68
2023-05-17T15:33:34.404Z,13.81
2023-05-17T15:36:02.106Z,13.76
2023-05-17T15:38:30.092Z,13.70
2023-05-17T15:41:04.017Z,13.51
2023-05-17T15:43:34.345Z,13.45
2023-05-17T15:46:02.202Z,13.37
2023-05-17T15:48:30.320Z,13.24
2023-05-17T15:50:58.648Z,13.22
2023-05-17T15:53:28.022Z,13.23
2023-05-17T15:55:56.212Z,13.24
2023-05-17T15:58:28.008Z,13.26
2023-05-17T16:00:55.954Z,13.24
2023-05-17T16:03:23.910Z,13.05
2023-05-17T16:05:51.828Z,13.10
2023-05-17T16:08:20.453Z,13.09
2023-05-17T16:10:48.190Z,13.05
2023-05-17T16:13:16.334Z,13.01
2023-05-17T16:15:44.540Z,13.08
2023-05-17T16:18:15.049Z,12.99
2023-05-17T16:20:43.863Z,12.96
2023-05-17T16:23:12.721Z,12.93
2023-05-17T16:25:41.605Z,12.90
2023-05-17T16:28:09.698Z,12.81
2023-05-17T16:30:38.134Z,12.81
2023-05-17T16:33:08.360Z,12.89
2023-05-17T16:35:36.519Z,12.76
2023-05-17T16:38:04.671Z,12.68
2023-05-17T16:40:33.029Z,12.65
2023-05-17T16:43:01.312Z,12.50
2023-05-17T16:45:29.195Z,12.48
2023-05-17T16:47:57.354Z,12.65
2023-05-17T16:50:25.420Z,12.58
2023-05-17T16:52:53.468Z,12.77
2023-05-17T16:55:21.216Z,12.79
2023-05-17T16:57:49.214Z,12.71
2023-05-17T17:00:17.689Z,12.80
2023-05-17T17:02:45.758Z,12.68
2023-05-17T17:05:13.668Z,12.61
2023-05-17T17:07:42.656Z,12.63
2023-05-17T17:10:11.896Z,12.72
2023-05-17T17:12:40.050Z,12.72
2023-05-17T17:15:09.385Z,12.80
2023-05-17T17:17:37.628Z,12.66
2023-05-17T17:20:06.613Z,12.68
2023-05-17T17:22:34.830Z,12.73
2023-05-17T17:25:02.716Z,12.73
2023-05-17T17:27:30.763Z,12.78
2023-05-17T17:29:58.465Z,12.84
2023-05-17T17:32:26.485Z,12.80
2023-05-17T17:34:54.256Z,12.73
2023-05-17T17:37:22.406Z,12.65
2023-05-17T17:39:50.202Z,12.70
2023-05-17T17:42:18.216Z,12.51
2023-05-17T17:44:46.084Z,12.42
2023-05-17T17:47:14.327Z,12.38
2023-05-17T17:49:42.543Z,12.31
2023-05-17T17:52:10.573Z,12.28
2023-05-17T17:54:38.314Z,12.25
2023-05-17T17:57:06.559Z,12.15
2023-05-17T17:59:34.507Z,12.11
2023-05-17T18:02:02.580Z,12.08
2023-05-17T18:04:30.401Z,12.05
2023-05-17T18:06:58.477Z,11.98
2023-05-17T18:09:26.216Z,11.99
2023-05-17T18:11:54.247Z,11.95
2023-05-17T18:14:22.094Z,11.94
2023-05-17T18:16:50.113Z,11.87
2023-05-17T18:19:18.012Z,11.86
2023-05-17T18:21:46.305Z,11.87
2023-05-17T18:24:14.084Z,11.90
2023-05-17T18:26:42.109Z,11.91
2023-05-17T18:29:09.787Z,11.82
2023-05-17T18:31:38.090Z,11.86
2023-05-17T18:34:06.113Z,11.95
2023-05-17T18:36:34.311Z,11.84
2023-05-17T18:39:02.078Z,11.79
2023-05-17T18:41:30.076Z,11.78
2023-05-17T18:44:01.890Z,11.77
2023-05-17T18:46:30.570Z,11.79
2023-05-17T18:48:58.406Z,11.73
2023-05-17T18:51:26.381Z,11.68
2023-05-17T18:53:55.135Z,11.69
2023-05-17T18:56:25.110Z,11.68
2023-05-17T18:58:53.153Z,11.64
2023-05-17T19:01:21.605Z,11.65
2023-05-17T19:03:56.211Z,11.63
2023-05-17T19:06:25.292Z,11.70
2023-05-17T19:08:53.380Z,11.79
2023-05-17T19:11:22.719Z,11.86
2023-05-17T19:13:50.561Z,11.83
2023-05-17T19:16:18.722Z,11.99
2023-05-17T19:18:46.512Z,11.81
2023-05-17T19:21:14.748Z,11.82
2023-05-17T19:23:42.755Z,11.71
2023-05-17T19:26:10.852Z,11.71
2023-05-17T19:28:40.418Z,11.73
2023-05-17T19:31:08.714Z,11.83
2023-05-17T19:33:37.765Z,11.77
2023-05-17T19:36:06.109Z,11.71
2023-05-17T19:38:34.116Z,11.67
2023-05-17T19:41:02.429Z,11.61
2023-05-17T19:43:30.202Z,11.65
2023-05-17T19:45:58.244Z,11.74
2023-05-17T19:48:26.863Z,11.80
2023-05-17T19:50:56.753Z,11.70
2023-05-17T19:53:24.778Z,11.70
2023-05-17T19:55:54.005Z,11.73
2023-05-17T19:58:21.766Z,11.86
2023-05-17T20:00:49.806Z,11.89
2023-05-17T20:03:17.578Z,11.82
2023-05-17T20:05:45.927Z,11.85
2023-05-17T20:08:15.096Z,11.76
2023-05-17T20:10:43.196Z,11.72
2023-05-17T20:13:11.066Z,11.62
2023-05-17T20:15:39.103Z,11.71
2023-05-17T20:18:09.204Z,11.62
2023-05-17T20:20:37.477Z,11.55
2023-05-17T20:23:05.293Z,11.76
2023-05-17T20:25:33.440Z,11.78
2023-05-17T20:28:01.339Z,11.94
2023-05-17T20:30:29.818Z,11.79
2023-05-17T20:32:57.804Z,11.94
2023-05-17T20:35:26.042Z,11.83
2023-05-17T20:37:53.745Z,11.76
2023-05-17T20:40:21.716Z,11.68
2023-05-17T20:42:50.166Z,11.60
2023-05-17T20:45:18.160Z,11.71
2023-05-17T20:47:46.086Z,11.59
2023-05-17T20:50:15.449Z,11.54
2023-05-17T20:52:43.265Z,11.45
2023-05-17T20:55:11.545Z,11.22
2023-05-17T20:57:39.350Z,11.29
2023-05-17T21:00:11.525Z,11.36
2023-05-17T21:02:39.701Z,11.35
2023-05-17T21:05:09.251Z,11.20
2023-05-17T21:07:39.322Z,11.15
2023-05-17T21:10:08.860Z,11.23
2023-05-17T21:12:36.557Z,11.12
2023-05-17T21:15:16.369Z,11.17
2023-05-17T21:17:52.751Z,11.11
2023-05-17T21:20:22.272Z,11.00
2023-05-17T21:22:52.235Z,10.99
2023-05-17T21:25:20.656Z,10.96
2023-05-17T21:27:48.539Z,10.88
2023-05-17T21:30:16.590Z,10.85
2023-05-17T21:32:44.431Z,10.63
2023-05-17T21:35:12.829Z,10.75
2023-05-17T21:37:41.921Z,10.75
2023-05-17T21:40:10.629Z,10.53
2023-05-17T21:42:38.680Z,10.61
2023-05-17T21:45:07.356Z,10.73
2023-05-17T21:47:38.021Z,10.81
2023-05-17T21:50:06.420Z,10.75
2023-05-17T21:52:34.501Z,10.63
2023-05-17T21:55:02.573Z,10.48
2023-05-17T21:57:30.285Z,10.30
2023-05-17T21:59:58.217Z,10.16
2023-05-17T22:02:26.384Z,9.88
2023-05-17T22:04:54.763Z,9.90
2023-05-17T22:07:22.479Z,9.79
2023-05-17T22:09:50.523Z,9.81
2023-05-17T22:12:25.406Z,9.68
2023-05-17T22:14:56.074Z,9.57
2023-05-17T22:17:39.225Z,9.47
2023-05-17T22:20:18.082Z,9.41
2023-05-17T22:22:45.796Z,9.35
2023-05-17T22:25:15.067Z,9.27
2023-05-17T22:27:43.676Z,9.36
2023-05-17T22:30:11.914Z,9.34
2023-05-17T22:32:40.387Z,9.25
2023-05-17T22:35:08.637Z,9.04
2023-05-17T22:37:37.641Z,8.95
2023-05-17T22:40:06.626Z,8.95
2023-05-17T22:42:34.461Z,8.94
2023-05-17T22:45:02.804Z,8.96
2023-05-17T22:47:30.616Z,8.95
2023-05-17T22:50:00.757Z,8.88
2023-05-17T22:52:28.562Z,8.91
2023-05-17T22:54:56.532Z,8.80
2023-05-17T22:57:24.333Z,8.79
2023-05-17T22:59:52.261Z,8.81
2023-05-17T23:02:19.943Z,8.76
2023-05-17T23:04:48.029Z,8.63
2023-05-17T23:07:16.429Z,8.68
2023-05-17T23:09:44.564Z,8.52
2023-05-17T23:12:14.236Z,8.57
2023-05-17T23:14:42.577Z,8.58
2023-05-17T23:17:10.439Z,8.48
2023-05-17T23:19:40.692Z,8.55
2023-05-17T23:22:08.516Z,8.62
2023-05-17T23:24:38.977Z,8.53
2023-05-17T23:27:10.403Z,8.59
2023-05-17T23:29:41.459Z,8.51
2023-05-17T23:32:09.320Z,8.53
2023-05-17T23:34:37.312Z,8.57
2023-05-17T23:37:05.080Z,8.53
2023-05-17T23:39:33.024Z,8.32
2023-05-17T23:42:00.720Z,8.45
2023-05-17T23:44:28.677Z,8.54
2023-05-17T23:46:56.486Z,8.36
2023-05-17T23:49:24.428Z,8.26
2023-05-17T23:51:52.169Z,8.17
2023-05-17T23:54:20.260Z,8.12
2023-05-17T23:56:48.099Z,8.08
2023-05-17T23:59:16.420Z,8.06
